Terminal Aerodrome Forecast
Issued by NWS

Home | Current Version | Previous Version | Text Only | Print | Product List | Glossary On
Versions: 1 2 3 4 5 6 7 8 9 10 11 12 13 14 15 16 17 18 19 20 21 22 23 24 25
000
FTUS45 KCYS 041120
TAFRWL
TAF
KRWL 041120Z 0412/0512 24017G28KT P6SM SCT100
      TEMPO 0412/0416 BKN025
     FM041600 23026G38KT P6SM BKN080
     FM050200 24025G35KT P6SM BKN060
     FM050900 24023KT P6SM OVC035
      TEMPO 0509/0512 3SM -SN OVC025=

USA.gov is the U.S. government's official web portal to all federal, state and local government web resources and services.